sensor_id;sensor_type;location;lat;lon;timestamp;P1;durP1;ratioP1;P2;durP2;ratioP2
33279;SDS011;20403;43.114;12.434;2023-06-19T00:01:42;9.93;;;4.75;;
33279;SDS011;20403;43.114;12.434;2023-06-19T00:04:09;8.07;;;5.07;;
33279;SDS011;20403;43.114;12.434;2023-06-19T00:06:35;8.32;;;4.97;;
33279;SDS011;20403;43.114;12.434;2023-06-19T00:09:00;7.88;;;5.03;;
33279;SDS011;20403;43.114;12.434;2023-06-19T00:11:26;9.30;;;5.07;;
33279;SDS011;20403;43.114;12.434;2023-06-19T00:13:51;7.97;;;5.28;;
33279;SDS011;20403;43.114;12.434;2023-06-19T00:16:17;6.85;;;4.97;;
33279;SDS011;20403;43.114;12.434;2023-06-19T00:18:43;10.25;;;5.13;;
33279;SDS011;20403;43.114;12.434;2023-06-19T00:21:08;7.43;;;5.10;;
33279;SDS011;20403;43.114;12.434;2023-06-19T00:23:34;8.70;;;5.90;;
33279;SDS011;20403;43.114;12.434;2023-06-19T00:26:00;10.07;;;5.35;;
33279;SDS011;20403;43.114;12.434;2023-06-19T00:28:28;8.73;;;5.43;;
33279;SDS011;20403;43.114;12.434;2023-06-19T00:30:54;7.20;;;4.97;;
33279;SDS011;20403;43.114;12.434;2023-06-19T00:33:20;6.50;;;4.88;;
33279;SDS011;20403;43.114;12.434;2023-06-19T00:35:46;8.18;;;5.22;;
33279;SDS011;20403;43.114;12.434;2023-06-19T00:38:12;7.15;;;4.93;;
33279;SDS011;20403;43.114;12.434;2023-06-19T00:40:37;13.95;;;5.65;;
33279;SDS011;20403;43.114;12.434;2023-06-19T00:43:03;7.40;;;5.35;;
33279;SDS011;20403;43.114;12.434;2023-06-19T00:45:29;7.05;;;5.15;;
33279;SDS011;20403;43.114;12.434;2023-06-19T00:47:55;7.53;;;5.72;;
33279;SDS011;20403;43.114;12.434;2023-06-19T00:50:21;9.73;;;5.25;;
33279;SDS011;20403;43.114;12.434;2023-06-19T00:52:48;6.38;;;5.07;;
33279;SDS011;20403;43.114;12.434;2023-06-19T00:55:14;7.07;;;5.43;;
33279;SDS011;20403;43.114;12.434;2023-06-19T00:57:40;8.65;;;5.45;;
33279;SDS011;20403;43.114;12.434;2023-06-19T01:00:07;7.43;;;5.57;;
33279;SDS011;20403;43.114;12.434;2023-06-19T01:02:33;6.18;;;5.20;;
33279;SDS011;20403;43.114;12.434;2023-06-19T01:04:59;7.75;;;5.32;;
33279;SDS011;20403;43.114;12.434;2023-06-19T01:10:33;13.18;;;5.72;;
33279;SDS011;20403;43.114;12.434;2023-06-19T01:15:35;9.90;;;5.93;;
33279;SDS011;20403;43.114;12.434;2023-06-19T01:18:02;8.65;;;5.82;;
33279;SDS011;20403;43.114;12.434;2023-06-19T01:20:28;13.77;;;6.18;;
33279;SDS011;20403;43.114;12.434;2023-06-19T01:22:56;9.63;;;6.10;;
33279;SDS011;20403;43.114;12.434;2023-06-19T01:25:22;8.75;;;5.55;;
33279;SDS011;20403;43.114;12.434;2023-06-19T01:27:49;7.45;;;5.38;;
33279;SDS011;20403;43.114;12.434;2023-06-19T01:30:15;7.70;;;5.25;;
33279;SDS011;20403;43.114;12.434;2023-06-19T01:32:44;8.82;;;5.47;;
33279;SDS011;20403;43.114;12.434;2023-06-19T01:35:13;8.98;;;5.65;;
33279;SDS011;20403;43.114;12.434;2023-06-19T01:37:42;8.18;;;5.88;;
33279;SDS011;20403;43.114;12.434;2023-06-19T01:40:10;7.90;;;6.03;;
33279;SDS011;20403;43.114;12.434;2023-06-19T01:42:37;9.02;;;5.97;;
33279;SDS011;20403;43.114;12.434;2023-06-19T01:45:05;8.77;;;6.05;;
33279;SDS011;20403;43.114;12.434;2023-06-19T01:47:31;8.82;;;6.20;;
33279;SDS011;20403;43.114;12.434;2023-06-19T01:49:57;8.63;;;5.93;;
33279;SDS011;20403;43.114;12.434;2023-06-19T01:52:23;9.25;;;5.82;;
33279;SDS011;20403;43.114;12.434;2023-06-19T01:54:49;7.82;;;5.43;;
33279;SDS011;20403;43.114;12.434;2023-06-19T01:57:15;9.50;;;5.93;;
33279;SDS011;20403;43.114;12.434;2023-06-19T01:59:40;7.95;;;6.00;;
33279;SDS011;20403;43.114;12.434;2023-06-19T02:02:06;9.57;;;5.18;;
33279;SDS011;20403;43.114;12.434;2023-06-19T02:04:32;12.20;;;6.35;;
33279;SDS011;20403;43.114;12.434;2023-06-19T02:06:57;8.25;;;6.50;;
33279;SDS011;20403;43.114;12.434;2023-06-19T02:09:23;10.57;;;6.70;;
33279;SDS011;20403;43.114;12.434;2023-06-19T02:11:48;11.45;;;6.57;;
33279;SDS011;20403;43.114;12.434;2023-06-19T02:14:14;7.68;;;5.85;;
33279;SDS011;20403;43.114;12.434;2023-06-19T02:16:39;8.55;;;6.07;;
33279;SDS011;20403;43.114;12.434;2023-06-19T02:19:11;6.28;;;5.50;;
33279;SDS011;20403;43.114;12.434;2023-06-19T02:21:37;8.65;;;5.53;;
33279;SDS011;20403;43.114;12.434;2023-06-19T02:24:03;11.43;;;6.07;;
33279;SDS011;20403;43.114;12.434;2023-06-19T02:26:29;10.60;;;6.22;;
33279;SDS011;20403;43.114;12.434;2023-06-19T02:28:55;7.93;;;6.03;;
33279;SDS011;20403;43.114;12.434;2023-06-19T02:31:21;8.35;;;6.15;;
33279;SDS011;20403;43.114;12.434;2023-06-19T02:33:47;6.82;;;6.00;;
33279;SDS011;20403;43.114;12.434;2023-06-19T02:36:13;10.18;;;5.80;;
33279;SDS011;20403;43.114;12.434;2023-06-19T02:38:38;10.73;;;6.03;;
33279;SDS011;20403;43.114;12.434;2023-06-19T02:41:03;12.10;;;6.28;;
33279;SDS011;20403;43.114;12.434;2023-06-19T02:43:29;10.07;;;5.85;;
33279;SDS011;20403;43.114;12.434;2023-06-19T02:45:55;8.07;;;6.13;;
33279;SDS011;20403;43.114;12.434;2023-06-19T02:48:20;7.38;;;5.85;;
33279;SDS011;20403;43.114;12.434;2023-06-19T02:50:48;10.38;;;5.70;;
33279;SDS011;20403;43.114;12.434;2023-06-19T02:53:13;8.38;;;6.00;;
33279;SDS011;20403;43.114;12.434;2023-06-19T02:55:39;20.27;;;6.72;;
33279;SDS011;20403;43.114;12.434;2023-06-19T02:58:04;13.02;;;6.68;;
33279;SDS011;20403;43.114;12.434;2023-06-19T03:00:30;10.82;;;6.47;;
33279;SDS011;20403;43.114;12.434;2023-06-19T03:02:55;9.80;;;6.07;;
33279;SDS011;20403;43.114;12.434;2023-06-19T03:05:21;12.00;;;6.38;;
33279;SDS011;20403;43.114;12.434;2023-06-19T03:07:46;10.90;;;6.00;;
33279;SDS011;20403;43.114;12.434;2023-06-19T03:10:11;8.27;;;5.55;;
33279;SDS011;20403;43.114;12.434;2023-06-19T03:12:37;12.15;;;5.75;;
33279;SDS011;20403;43.114;12.434;2023-06-19T03:15:02;8.95;;;6.30;;
33279;SDS011;20403;43.114;12.434;2023-06-19T03:17:28;8.93;;;6.00;;
33279;SDS011;20403;43.114;12.434;2023-06-19T03:19:53;10.32;;;6.45;;
33279;SDS011;20403;43.114;12.434;2023-06-19T03:22:19;8.55;;;6.00;;
33279;SDS011;20403;43.114;12.434;2023-06-19T03:24:46;8.27;;;5.72;;
33279;SDS011;20403;43.114;12.434;2023-06-19T03:27:12;18.38;;;6.13;;
33279;SDS011;20403;43.114;12.434;2023-06-19T03:29:37;8.45;;;5.72;;
33279;SDS011;20403;43.114;12.434;2023-06-19T03:32:02;9.57;;;5.63;;
33279;SDS011;20403;43.114;12.434;2023-06-19T03:34:28;10.80;;;6.07;;
33279;SDS011;20403;43.114;12.434;2023-06-19T03:36:53;11.95;;;6.10;;
33279;SDS011;20403;43.114;12.434;2023-06-19T03:39:19;10.93;;;6.20;;
33279;SDS011;20403;43.114;12.434;2023-06-19T03:41:44;9.90;;;6.22;;
33279;SDS011;20403;43.114;12.434;2023-06-19T03:44:10;13.88;;;6.47;;
33279;SDS011;20403;43.114;12.434;2023-06-19T03:46:35;10.20;;;5.88;;
33279;SDS011;20403;43.114;12.434;2023-06-19T03:49:00;11.00;;;6.70;;
33279;SDS011;20403;43.114;12.434;2023-06-19T03:51:27;12.98;;;6.30;;
33279;SDS011;20403;43.114;12.434;2023-06-19T03:53:54;10.52;;;5.70;;
33279;SDS011;20403;43.114;12.434;2023-06-19T03:56:19;8.23;;;5.72;;
33279;SDS011;20403;43.114;12.434;2023-06-19T03:58:44;8.43;;;6.03;;
33279;SDS011;20403;43.114;12.434;2023-06-19T04:01:10;8.95;;;5.95;;
33279;SDS011;20403;43.114;12.434;2023-06-19T04:03:35;7.45;;;6.63;;
33279;SDS011;20403;43.114;12.434;2023-06-19T04:06:01;8.68;;;6.57;;
33279;SDS011;20403;43.114;12.434;2023-06-19T04:08:26;8.48;;;6.15;;
33279;SDS011;20403;43.114;12.434;2023-06-19T04:10:51;9.30;;;6.25;;
33279;SDS011;20403;43.114;12.434;2023-06-19T04:13:17;11.75;;;6.45;;
33279;SDS011;20403;43.114;12.434;2023-06-19T04:15:42;10.50;;;6.00;;
33279;SDS011;20403;43.114;12.434;2023-06-19T04:18:09;14.48;;;6.22;;
33279;SDS011;20403;43.114;12.434;2023-06-19T04:20:35;11.68;;;6.60;;
33279;SDS011;20403;43.114;12.434;2023-06-19T04:23:00;10.45;;;7.22;;
33279;SDS011;20403;43.114;12.434;2023-06-19T04:25:26;11.30;;;7.32;;
33279;SDS011;20403;43.114;12.434;2023-06-19T04:27:51;9.43;;;7.30;;
33279;SDS011;20403;43.114;12.434;2023-06-19T04:30:17;10.80;;;6.93;;
33279;SDS011;20403;43.114;12.434;2023-06-19T04:32:42;13.77;;;7.97;;
33279;SDS011;20403;43.114;12.434;2023-06-19T04:35:08;8.25;;;6.75;;
33279;SDS011;20403;43.114;12.434;2023-06-19T04:37:33;11.00;;;7.57;;
33279;SDS011;20403;43.114;12.434;2023-06-19T04:39:59;10.68;;;6.70;;
33279;SDS011;20403;43.114;12.434;2023-06-19T04:42:24;14.00;;;7.22;;
33279;SDS011;20403;43.114;12.434;2023-06-19T04:44:51;11.27;;;6.68;;
33279;SDS011;20403;43.114;12.434;2023-06-19T04:47:17;12.27;;;8.60;;
33279;SDS011;20403;43.114;12.434;2023-06-19T04:49:45;13.82;;;6.93;;
33279;SDS011;20403;43.114;12.434;2023-06-19T04:52:11;10.48;;;7.75;;
33279;SDS011;20403;43.114;12.434;2023-06-19T04:54:36;8.68;;;6.70;;
33279;SDS011;20403;43.114;12.434;2023-06-19T04:57:02;11.35;;;6.75;;
33279;SDS011;20403;43.114;12.434;2023-06-19T04:59:28;10.52;;;7.38;;
33279;SDS011;20403;43.114;12.434;2023-06-19T05:01:55;13.65;;;6.75;;
33279;SDS011;20403;43.114;12.434;2023-06-19T05:04:21;8.90;;;6.57;;
33279;SDS011;20403;43.114;12.434;2023-06-19T05:06:47;9.70;;;6.80;;
33279;SDS011;20403;43.114;12.434;2023-06-19T05:09:13;9.82;;;6.28;;
33279;SDS011;20403;43.114;12.434;2023-06-19T05:11:38;11.68;;;6.85;;
33279;SDS011;20403;43.114;12.434;2023-06-19T05:14:04;9.95;;;6.68;;
33279;SDS011;20403;43.114;12.434;2023-06-19T05:16:29;12.10;;;7.00;;
33279;SDS011;20403;43.114;12.434;2023-06-19T05:18:55;14.10;;;7.00;;
33279;SDS011;20403;43.114;12.434;2023-06-19T05:21:20;11.85;;;6.80;;
33279;SDS011;20403;43.114;12.434;2023-06-19T05:23:46;13.77;;;6.75;;
33279;SDS011;20403;43.114;12.434;2023-06-19T05:26:21;12.00;;;6.57;;
33279;SDS011;20403;43.114;12.434;2023-06-19T05:28:47;13.85;;;7.25;;
33279;SDS011;20403;43.114;12.434;2023-06-19T05:31:13;9.70;;;7.03;;
33279;SDS011;20403;43.114;12.434;2023-06-19T05:33:39;16.67;;;7.40;;
33279;SDS011;20403;43.114;12.434;2023-06-19T05:36:05;16.10;;;7.65;;
33279;SDS011;20403;43.114;12.434;2023-06-19T05:38:30;25.02;;;8.82;;
33279;SDS011;20403;43.114;12.434;2023-06-19T05:40:56;23.27;;;8.73;;
33279;SDS011;20403;43.114;12.434;2023-06-19T05:43:22;14.10;;;7.60;;
33279;SDS011;20403;43.114;12.434;2023-06-19T05:45:49;13.43;;;6.55;;
33279;SDS011;20403;43.114;12.434;2023-06-19T05:48:15;14.32;;;7.05;;
33279;SDS011;20403;43.114;12.434;2023-06-19T05:50:40;15.38;;;6.95;;
33279;SDS011;20403;43.114;12.434;2023-06-19T05:53:06;9.90;;;6.57;;
33279;SDS011;20403;43.114;12.434;2023-06-19T05:55:31;14.40;;;6.72;;
33279;SDS011;20403;43.114;12.434;2023-06-19T05:57:57;27.13;;;7.90;;
33279;SDS011;20403;43.114;12.434;2023-06-19T06:00:22;10.07;;;5.65;;
33279;SDS011;20403;43.114;12.434;2023-06-19T06:02:48;9.75;;;5.90;;
33279;SDS011;20403;43.114;12.434;2023-06-19T06:05:14;30.38;;;8.23;;
33279;SDS011;20403;43.114;12.434;2023-06-19T06:07:39;30.25;;;8.32;;
33279;SDS011;20403;43.114;12.434;2023-06-19T06:10:05;64.75;;;14.13;;
33279;SDS011;20403;43.114;12.434;2023-06-19T06:12:34;19.80;;;7.30;;
33279;SDS011;20403;43.114;12.434;2023-06-19T06:15:00;44.97;;;12.75;;
33279;SDS011;20403;43.114;12.434;2023-06-19T06:17:30;27.80;;;8.45;;
33279;SDS011;20403;43.114;12.434;2023-06-19T06:19:56;15.35;;;6.50;;
33279;SDS011;20403;43.114;12.434;2023-06-19T06:22:21;17.98;;;7.78;;
33279;SDS011;20403;43.114;12.434;2023-06-19T06:24:47;17.35;;;6.47;;
33279;SDS011;20403;43.114;12.434;2023-06-19T06:27:13;26.00;;;8.45;;
33279;SDS011;20403;43.114;12.434;2023-06-19T06:29:38;15.85;;;7.07;;
33279;SDS011;20403;43.114;12.434;2023-06-19T06:32:04;21.95;;;7.10;;
33279;SDS011;20403;43.114;12.434;2023-06-19T06:34:31;13.20;;;6.28;;
33279;SDS011;20403;43.114;12.434;2023-06-19T06:36:57;19.52;;;7.13;;
33279;SDS011;20403;43.114;12.434;2023-06-19T06:39:23;14.73;;;7.03;;
33279;SDS011;20403;43.114;12.434;2023-06-19T06:41:49;13.73;;;6.30;;
33279;SDS011;20403;43.114;12.434;2023-06-19T06:44:15;11.35;;;6.75;;
33279;SDS011;20403;43.114;12.434;2023-06-19T06:46:40;15.52;;;6.20;;
33279;SDS011;20403;43.114;12.434;2023-06-19T06:49:05;10.90;;;6.43;;
33279;SDS011;20403;43.114;12.434;2023-06-19T06:51:31;9.82;;;6.03;;
33279;SDS011;20403;43.114;12.434;2023-06-19T06:53:56;7.63;;;5.80;;
33279;SDS011;20403;43.114;12.434;2023-06-19T06:56:21;10.43;;;6.63;;
33279;SDS011;20403;43.114;12.434;2023-06-19T06:58:47;11.00;;;6.68;;
33279;SDS011;20403;43.114;12.434;2023-06-19T07:01:13;8.85;;;6.00;;
33279;SDS011;20403;43.114;12.434;2023-06-19T07:03:38;13.35;;;5.90;;
33279;SDS011;20403;43.114;12.434;2023-06-19T07:06:04;17.42;;;6.55;;
33279;SDS011;20403;43.114;12.434;2023-06-19T07:08:30;12.77;;;6.60;;
33279;SDS011;20403;43.114;12.434;2023-06-19T07:10:55;13.20;;;6.68;;
33279;SDS011;20403;43.114;12.434;2023-06-19T07:13:20;11.48;;;6.05;;
33279;SDS011;20403;43.114;12.434;2023-06-19T07:15:46;15.60;;;6.50;;
33279;SDS011;20403;43.114;12.434;2023-06-19T07:18:11;13.10;;;7.22;;
33279;SDS011;20403;43.114;12.434;2023-06-19T07:20:37;8.90;;;6.75;;
33279;SDS011;20403;43.114;12.434;2023-06-19T07:23:02;11.38;;;6.82;;
33279;SDS011;20403;43.114;12.434;2023-06-19T07:25:28;9.05;;;6.00;;
33279;SDS011;20403;43.114;12.434;2023-06-19T07:27:53;12.40;;;7.35;;
33279;SDS011;20403;43.114;12.434;2023-06-19T07:30:19;11.07;;;7.45;;
33279;SDS011;20403;43.114;12.434;2023-06-19T07:32:45;14.02;;;7.20;;
33279;SDS011;20403;43.114;12.434;2023-06-19T07:35:10;17.15;;;8.15;;
33279;SDS011;20403;43.114;12.434;2023-06-19T07:37:36;9.57;;;6.47;;
33279;SDS011;20403;43.114;12.434;2023-06-19T07:40:02;19.25;;;7.15;;
33279;SDS011;20403;43.114;12.434;2023-06-19T07:42:28;12.90;;;7.03;;
33279;SDS011;20403;43.114;12.434;2023-06-19T07:44:53;12.32;;;7.90;;
33279;SDS011;20403;43.114;12.434;2023-06-19T07:47:19;13.00;;;7.60;;
33279;SDS011;20403;43.114;12.434;2023-06-19T07:49:45;12.35;;;6.28;;
33279;SDS011;20403;43.114;12.434;2023-06-19T07:52:12;12.70;;;7.05;;
33279;SDS011;20403;43.114;12.434;2023-06-19T07:54:57;12.35;;;6.95;;
33279;SDS011;20403;43.114;12.434;2023-06-19T07:57:23;10.35;;;6.75;;
33279;SDS011;20403;43.114;12.434;2023-06-19T07:59:50;14.32;;;6.53;;
33279;SDS011;20403;43.114;12.434;2023-06-19T08:02:16;12.93;;;8.07;;
33279;SDS011;20403;43.114;12.434;2023-06-19T08:04:42;13.68;;;8.55;;
33279;SDS011;20403;43.114;12.434;2023-06-19T08:07:08;13.43;;;8.27;;
33279;SDS011;20403;43.114;12.434;2023-06-19T08:09:33;16.52;;;8.65;;
33279;SDS011;20403;43.114;12.434;2023-06-19T08:12:00;13.38;;;8.80;;
33279;SDS011;20403;43.114;12.434;2023-06-19T08:14:26;11.60;;;7.60;;
33279;SDS011;20403;43.114;12.434;2023-06-19T08:16:51;14.73;;;7.95;;
33279;SDS011;20403;43.114;12.434;2023-06-19T08:19:16;11.80;;;6.90;;
33279;SDS011;20403;43.114;12.434;2023-06-19T08:21:42;9.80;;;5.88;;
33279;SDS011;20403;43.114;12.434;2023-06-19T08:24:07;9.23;;;5.65;;
33279;SDS011;20403;43.114;12.434;2023-06-19T08:26:33;10.75;;;5.85;;
33279;SDS011;20403;43.114;12.434;2023-06-19T08:28:58;9.73;;;5.47;;
33279;SDS011;20403;43.114;12.434;2023-06-19T08:31:24;11.90;;;5.00;;
33279;SDS011;20403;43.114;12.434;2023-06-19T08:33:55;8.18;;;5.05;;
33279;SDS011;20403;43.114;12.434;2023-06-19T08:36:21;9.02;;;4.82;;
33279;SDS011;20403;43.114;12.434;2023-06-19T08:38:46;11.30;;;5.70;;
33279;SDS011;20403;43.114;12.434;2023-06-19T08:41:14;13.38;;;5.50;;
33279;SDS011;20403;43.114;12.434;2023-06-19T08:43:40;9.52;;;5.97;;
33279;SDS011;20403;43.114;12.434;2023-06-19T08:46:09;11.95;;;5.90;;
33279;SDS011;20403;43.114;12.434;2023-06-19T08:48:37;8.77;;;5.00;;
33279;SDS011;20403;43.114;12.434;2023-06-19T08:51:03;8.93;;;4.82;;
33279;SDS011;20403;43.114;12.434;2023-06-19T08:53:34;10.52;;;4.97;;
33279;SDS011;20403;43.114;12.434;2023-06-19T08:56:04;10.85;;;4.78;;
33279;SDS011;20403;43.114;12.434;2023-06-19T08:58:29;11.75;;;5.47;;
33279;SDS011;20403;43.114;12.434;2023-06-19T09:00:57;9.30;;;4.68;;
33279;SDS011;20403;43.114;12.434;2023-06-19T09:03:23;7.43;;;4.75;;
33279;SDS011;20403;43.114;12.434;2023-06-19T09:05:49;10.00;;;4.65;;
33279;SDS011;20403;43.114;12.434;2023-06-19T09:08:16;15.30;;;5.00;;
33279;SDS011;20403;43.114;12.434;2023-06-19T09:10:42;9.30;;;4.78;;
33279;SDS011;20403;43.114;12.434;2023-06-19T09:13:08;9.15;;;5.18;;
33279;SDS011;20403;43.114;12.434;2023-06-19T09:15:35;6.03;;;3.90;;
33279;SDS011;20403;43.114;12.434;2023-06-19T09:18:05;7.35;;;3.95;;
33279;SDS011;20403;43.114;12.434;2023-06-19T09:20:39;5.18;;;4.00;;
33279;SDS011;20403;43.114;12.434;2023-06-19T09:23:10;5.82;;;4.53;;
33279;SDS011;20403;43.114;12.434;2023-06-19T09:28:21;4.88;;;3.60;;
33279;SDS011;20403;43.114;12.434;2023-06-19T09:30:51;9.20;;;4.78;;
33279;SDS011;20403;43.114;12.434;2023-06-19T09:33:17;4.25;;;3.58;;
33279;SDS011;20403;43.114;12.434;2023-06-19T09:35:42;9.85;;;4.85;;
33279;SDS011;20403;43.114;12.434;2023-06-19T09:38:08;8.85;;;4.28;;
33279;SDS011;20403;43.114;12.434;2023-06-19T09:40:34;9.05;;;4.05;;
33279;SDS011;20403;43.114;12.434;2023-06-19T09:42:59;11.57;;;4.80;;
33279;SDS011;20403;43.114;12.434;2023-06-19T09:45:28;9.50;;;4.45;;
33279;SDS011;20403;43.114;12.434;2023-06-19T09:47:56;7.72;;;3.85;;
33279;SDS011;20403;43.114;12.434;2023-06-19T09:50:22;7.93;;;4.40;;
33279;SDS011;20403;43.114;12.434;2023-06-19T09:55:17;10.95;;;4.72;;
33279;SDS011;20403;43.114;12.434;2023-06-19T09:57:44;7.18;;;4.20;;
33279;SDS011;20403;43.114;12.434;2023-06-19T10:00:11;8.27;;;4.55;;
33279;SDS011;20403;43.114;12.434;2023-06-19T10:02:47;10.35;;;4.20;;
33279;SDS011;20403;43.114;12.434;2023-06-19T10:05:13;8.75;;;4.32;;
33279;SDS011;20403;43.114;12.434;2023-06-19T10:07:45;5.55;;;4.45;;
33279;SDS011;20403;43.114;12.434;2023-06-19T10:10:32;9.32;;;4.03;;
33279;SDS011;20403;43.114;12.434;2023-06-19T10:12:59;13.68;;;4.30;;
33279;SDS011;20403;43.114;12.434;2023-06-19T10:15:39;8.32;;;4.03;;
33279;SDS011;20403;43.114;12.434;2023-06-19T10:18:08;8.48;;;4.07;;
33279;SDS011;20403;43.114;12.434;2023-06-19T10:20:41;9.57;;;3.95;;
33279;SDS011;20403;43.114;12.434;2023-06-19T10:25:39;6.47;;;3.40;;
33279;SDS011;20403;43.114;12.434;2023-06-19T10:28:18;6.55;;;3.72;;
33279;SDS011;20403;43.114;12.434;2023-06-19T10:30:51;7.43;;;3.20;;
33279;SDS011;20403;43.114;12.434;2023-06-19T10:33:19;7.80;;;4.05;;
33279;SDS011;20403;43.114;12.434;2023-06-19T10:35:44;4.95;;;4.07;;
33279;SDS011;20403;43.114;12.434;2023-06-19T10:38:10;7.28;;;3.53;;
33279;SDS011;20403;43.114;12.434;2023-06-19T10:40:36;10.38;;;3.60;;
33279;SDS011;20403;43.114;12.434;2023-06-19T10:43:02;7.78;;;3.80;;
33279;SDS011;20403;43.114;12.434;2023-06-19T10:45:29;5.55;;;3.40;;
33279;SDS011;20403;43.114;12.434;2023-06-19T10:47:54;4.13;;;3.42;;
33279;SDS011;20403;43.114;12.434;2023-06-19T10:50:21;5.55;;;3.25;;
33279;SDS011;20403;43.114;12.434;2023-06-19T10:52:48;4.13;;;3.22;;
33279;SDS011;20403;43.114;12.434;2023-06-19T10:55:19;7.10;;;3.80;;
33279;SDS011;20403;43.114;12.434;2023-06-19T10:57:44;5.35;;;3.60;;
33279;SDS011;20403;43.114;12.434;2023-06-19T11:00:10;5.65;;;3.20;;
33279;SDS011;20403;43.114;12.434;2023-06-19T11:02:42;6.53;;;3.38;;
33279;SDS011;20403;43.114;12.434;2023-06-19T11:05:09;7.55;;;3.80;;
33279;SDS011;20403;43.114;12.434;2023-06-19T11:07:35;5.60;;;3.67;;
33279;SDS011;20403;43.114;12.434;2023-06-19T11:10:01;6.25;;;3.30;;
33279;SDS011;20403;43.114;12.434;2023-06-19T11:12:28;8.93;;;3.40;;
33279;SDS011;20403;43.114;12.434;2023-06-19T11:14:53;7.10;;;3.80;;
33279;SDS011;20403;43.114;12.434;2023-06-19T11:17:19;5.45;;;3.50;;
33279;SDS011;20403;43.114;12.434;2023-06-19T11:19:46;5.22;;;3.45;;
33279;SDS011;20403;43.114;12.434;2023-06-19T11:22:12;6.50;;;3.28;;
33279;SDS011;20403;43.114;12.434;2023-06-19T11:24:44;8.35;;;3.38;;
33279;SDS011;20403;43.114;12.434;2023-06-19T11:27:19;6.25;;;3.65;;
33279;SDS011;20403;43.114;12.434;2023-06-19T11:29:54;7.05;;;3.45;;
33279;SDS011;20403;43.114;12.434;2023-06-19T11:32:20;6.00;;;3.42;;
33279;SDS011;20403;43.114;12.434;2023-06-19T11:34:49;10.30;;;3.60;;
33279;SDS011;20403;43.114;12.434;2023-06-19T11:37:18;8.10;;;3.50;;
33279;SDS011;20403;43.114;12.434;2023-06-19T11:39:45;5.88;;;3.40;;
33279;SDS011;20403;43.114;12.434;2023-06-19T11:42:11;9.88;;;3.83;;
33279;SDS011;20403;43.114;12.434;2023-06-19T11:44:52;5.90;;;3.53;;
33279;SDS011;20403;43.114;12.434;2023-06-19T11:47:18;6.80;;;3.60;;
33279;SDS011;20403;43.114;12.434;2023-06-19T11:49:44;7.57;;;3.47;;
33279;SDS011;20403;43.114;12.434;2023-06-19T11:52:13;7.10;;;3.40;;
33279;SDS011;20403;43.114;12.434;2023-06-19T11:54:38;5.72;;;3.60;;
33279;SDS011;20403;43.114;12.434;2023-06-19T11:57:04;7.18;;;3.88;;
33279;SDS011;20403;43.114;12.434;2023-06-19T11:59:29;8.40;;;3.92;;
33279;SDS011;20403;43.114;12.434;2023-06-19T12:01:55;5.35;;;3.45;;
33279;SDS011;20403;43.114;12.434;2023-06-19T12:04:23;8.95;;;4.00;;
33279;SDS011;20403;43.114;12.434;2023-06-19T12:06:48;6.85;;;3.67;;
33279;SDS011;20403;43.114;12.434;2023-06-19T12:09:14;6.97;;;3.22;;
33279;SDS011;20403;43.114;12.434;2023-06-19T12:11:39;6.22;;;3.13;;
33279;SDS011;20403;43.114;12.434;2023-06-19T12:14:05;5.47;;;3.22;;
33279;SDS011;20403;43.114;12.434;2023-06-19T12:16:30;6.63;;;4.03;;
33279;SDS011;20403;43.114;12.434;2023-06-19T12:18:56;4.57;;;3.63;;
33279;SDS011;20403;43.114;12.434;2023-06-19T12:21:21;5.40;;;3.65;;
33279;SDS011;20403;43.114;12.434;2023-06-19T12:23:47;5.05;;;2.85;;
33279;SDS011;20403;43.114;12.434;2023-06-19T12:26:13;6.65;;;3.20;;
33279;SDS011;20403;43.114;12.434;2023-06-19T12:28:38;5.57;;;3.65;;
33279;SDS011;20403;43.114;12.434;2023-06-19T12:31:03;5.45;;;3.50;;
33279;SDS011;20403;43.114;12.434;2023-06-19T12:33:29;4.82;;;3.10;;
33279;SDS011;20403;43.114;12.434;2023-06-19T12:35:57;7.60;;;3.25;;
33279;SDS011;20403;43.114;12.434;2023-06-19T12:38:23;4.95;;;3.28;;
33279;SDS011;20403;43.114;12.434;2023-06-19T12:40:48;5.55;;;3.20;;
33279;SDS011;20403;43.114;12.434;2023-06-19T12:43:14;9.18;;;3.50;;
33279;SDS011;20403;43.114;12.434;2023-06-19T12:45:39;6.40;;;3.20;;
33279;SDS011;20403;43.114;12.434;2023-06-19T12:48:06;4.32;;;2.90;;
33279;SDS011;20403;43.114;12.434;2023-06-19T12:50:32;7.80;;;3.38;;
33279;SDS011;20403;43.114;12.434;2023-06-19T12:52:57;4.70;;;3.22;;
33279;SDS011;20403;43.114;12.434;2023-06-19T12:55:23;7.68;;;3.42;;
33279;SDS011;20403;43.114;12.434;2023-06-19T12:57:48;8.32;;;2.90;;
33279;SDS011;20403;43.114;12.434;2023-06-19T13:00:13;6.95;;;3.08;;
33279;SDS011;20403;43.114;12.434;2023-06-19T13:02:39;9.05;;;3.30;;
33279;SDS011;20403;43.114;12.434;2023-06-19T13:05:09;8.30;;;3.22;;
33279;SDS011;20403;43.114;12.434;2023-06-19T13:07:35;4.15;;;3.13;;
33279;SDS011;20403;43.114;12.434;2023-06-19T13:10:00;4.95;;;2.95;;
33279;SDS011;20403;43.114;12.434;2023-06-19T13:12:26;7.13;;;3.17;;
33279;SDS011;20403;43.114;12.434;2023-06-19T13:14:51;4.20;;;3.10;;
33279;SDS011;20403;43.114;12.434;2023-06-19T13:17:16;8.38;;;3.30;;
33279;SDS011;20403;43.114;12.434;2023-06-19T13:19:42;7.70;;;3.28;;
33279;SDS011;20403;43.114;12.434;2023-06-19T13:22:08;7.78;;;3.00;;
33279;SDS011;20403;43.114;12.434;2023-06-19T13:24:33;4.50;;;3.42;;
33279;SDS011;20403;43.114;12.434;2023-06-19T13:26:59;6.95;;;3.47;;
33279;SDS011;20403;43.114;12.434;2023-06-19T13:29:24;4.25;;;3.20;;
33279;SDS011;20403;43.114;12.434;2023-06-19T13:31:49;7.63;;;3.45;;
33279;SDS011;20403;43.114;12.434;2023-06-19T13:34:15;5.25;;;3.55;;
33279;SDS011;20403;43.114;12.434;2023-06-19T13:36:41;8.23;;;3.65;;
33279;SDS011;20403;43.114;12.434;2023-06-19T13:39:06;8.10;;;3.35;;
33279;SDS011;20403;43.114;12.434;2023-06-19T13:41:32;4.90;;;3.67;;
33279;SDS011;20403;43.114;12.434;2023-06-19T13:43:58;10.13;;;3.13;;
33279;SDS011;20403;43.114;12.434;2023-06-19T13:46:24;4.68;;;3.35;;
33279;SDS011;20403;43.114;12.434;2023-06-19T13:48:50;5.68;;;3.10;;
33279;SDS011;20403;43.114;12.434;2023-06-19T13:51:19;7.65;;;3.42;;
33279;SDS011;20403;43.114;12.434;2023-06-19T13:53:46;7.37;;;3.23;;
33279;SDS011;20403;43.114;12.434;2023-06-19T13:56:12;5.35;;;3.10;;
33279;SDS011;20403;43.114;12.434;2023-06-19T13:58:38;5.68;;;3.30;;
33279;SDS011;20403;43.114;12.434;2023-06-19T14:01:04;5.75;;;3.58;;
33279;SDS011;20403;43.114;12.434;2023-06-19T14:03:30;6.93;;;3.45;;
33279;SDS011;20403;43.114;12.434;2023-06-19T14:05:56;7.57;;;3.78;;
33279;SDS011;20403;43.114;12.434;2023-06-19T14:08:21;4.07;;;2.90;;
33279;SDS011;20403;43.114;12.434;2023-06-19T14:10:46;6.90;;;3.33;;
33279;SDS011;20403;43.114;12.434;2023-06-19T14:13:12;5.25;;;3.38;;
33279;SDS011;20403;43.114;12.434;2023-06-19T14:15:37;7.03;;;3.60;;
33279;SDS011;20403;43.114;12.434;2023-06-19T14:18:03;5.97;;;3.33;;
33279;SDS011;20403;43.114;12.434;2023-06-19T14:20:28;4.78;;;3.42;;
33279;SDS011;20403;43.114;12.434;2023-06-19T14:22:53;12.45;;;3.88;;
33279;SDS011;20403;43.114;12.434;2023-06-19T14:25:19;4.22;;;3.38;;
33279;SDS011;20403;43.114;12.434;2023-06-19T14:27:44;4.90;;;3.03;;
33279;SDS011;20403;43.114;12.434;2023-06-19T14:30:10;7.05;;;3.33;;
33279;SDS011;20403;43.114;12.434;2023-06-19T14:32:35;10.73;;;3.35;;
33279;SDS011;20403;43.114;12.434;2023-06-19T14:35:02;9.30;;;3.35;;
33279;SDS011;20403;43.114;12.434;2023-06-19T14:37:28;5.03;;;3.33;;